Hauptseite
METAR-TAF:

METAR-TAF

Flughäfen :

Flughafen Cannes - Mandelieu

Cannes, Frankreich

Breite: 43-33N, Länge: 006-57E, Höhe: 3 m

Beobachtung

Neuester Wetterbericht von vor 40 Minuten, um 10:30 UTC
Wind 6 kt aus Südost, variierte zwischen Nordost und Südwest
Temperatur 27°C
Luftfeuchtigkeit 70%
Luftdruck 1014 hPa
Sichtweite 10 km oder mehr
keine Wolken unter 1500 m und keine Kumulonimbus oder Gewitterwolken

METAR: LFMD 191030Z AUTO 14006KT 050V220 CAVOK 27/21 Q1014 NOSIG

Zeit: 13:10 (11:10 UTC)

Prognose

Neuester Wetterbericht von vor 3 Stunden und 10 Minuten, um 08:00 UTC
Gültige Prognose vom 19 um 09 UTC bis 20 um 09 UTC
Wind 10 kt aus Süd/Südost
Sichtweite 10 km oder mehr
Leicht bewölkt in der Höhe von 3000 ft
Übergehend zu
vom 19 um 18 UTC bis 19 um 20 UTC
Wind 3 kt aus unterschiedlichen Richtungen

TAF: LFMD 190800Z 1909/2009 15010KT 9999 FEW030 BECMG 1918/1920 VRB03KT

Wetterbeobachtungen und Prognosen von mehr als 4000 Flughäfen (METAR und TAF Bericht).

Die verfügbaren Stationen werden durch gelbe und rote Markierungen auf der Karte dargestellt.

Führen Sie die Maus auf sie, um den Namen der Station zu sehen.

Darauf klicken, um die Beobachtung von Wetterbeobachtungen und Prognosen zu sehen.

Um die Karte zu ändern : klicken Sie auf den grünen Tasten mit einem schwarzen Kreuz Zum Vergrößern, auf den grünen Button mit einem Gedankenstrich zu verkleinern, oder auf die grünen Pfeile für benachbarte Karten.


METAR-TAF: